createdAt,value
2018-06-02T00:00:03.694Z,0
2018-06-02T00:01:05.744Z,0
2018-06-02T00:02:08.083Z,0
2018-06-02T00:03:10.111Z,0
2018-06-02T00:04:12.155Z,0
2018-06-02T00:05:14.205Z,0
2018-06-02T00:06:16.540Z,0
2018-06-02T00:07:18.584Z,0
2018-06-02T00:08:21.014Z,0
2018-06-02T00:09:23.063Z,0
2018-06-02T00:10:25.105Z,0
2018-06-02T00:11:27.150Z,0
2018-06-02T00:12:29.204Z,0
2018-06-02T00:13:31.624Z,0
2018-06-02T00:14:33.670Z,0
2018-06-02T00:15:35.708Z,0
2018-06-02T00:16:37.753Z,0
2018-06-02T00:17:39.811Z,0
2018-06-02T00:18:42.522Z,0
2018-06-02T00:19:44.561Z,0
2018-06-02T00:20:46.886Z,0
2018-06-02T00:21:48.924Z,0
2018-06-02T00:22:50.973Z,0
2018-06-02T00:23:53.017Z,0
2018-06-02T00:24:55.071Z,0
2018-06-02T00:25:57.409Z,0
2018-06-02T00:26:59.443Z,0
2018-06-02T00:28:01.491Z,0
2018-06-02T00:29:03.544Z,0
2018-06-02T00:30:05.596Z,0
2018-06-02T00:31:07.643Z,0
2018-06-02T00:32:09.684Z,0
2018-06-02T00:33:11.727Z,0
2018-06-02T00:34:14.159Z,0
2018-06-02T00:35:16.205Z,0
2018-06-02T00:36:18.527Z,0
2018-06-02T00:37:20.585Z,0
2018-06-02T00:38:22.912Z,0
2018-06-02T00:39:25.337Z,0
2018-06-02T00:40:27.383Z,0
2018-06-02T00:41:29.725Z,0
2018-06-02T00:42:31.774Z,0
2018-06-02T00:43:34.086Z,0
2018-06-02T00:44:36.423Z,0
2018-06-02T00:45:38.478Z,0
2018-06-02T00:46:40.515Z,0
2018-06-02T00:47:42.560Z,0
2018-06-02T00:48:44.893Z,0
2018-06-02T00:49:46.939Z,0
2018-06-02T00:50:48.974Z,0
2018-06-02T00:51:51.016Z,0
2018-06-02T00:52:53.355Z,0
2018-06-02T00:53:55.700Z,0
2018-06-02T00:54:57.750Z,0
2018-06-02T00:55:59.805Z,0
2018-06-02T00:57:01.854Z,0
2018-06-02T00:58:03.887Z,0
2018-06-02T00:59:05.936Z,0
2018-06-02T01:00:07.980Z,0
2018-06-02T01:01:10.039Z,0
2018-06-02T01:02:12.387Z,0
2018-06-02T01:03:14.428Z,0
2018-06-02T01:04:16.477Z,0
2018-06-02T01:05:18.522Z,0
2018-06-02T01:06:20.564Z,0
2018-06-02T01:07:22.599Z,0
2018-06-02T01:08:24.643Z,0
2018-06-02T01:09:26.704Z,0
2018-06-02T01:10:29.330Z,0
2018-06-02T01:11:31.378Z,0
2018-06-02T01:12:33.421Z,0
2018-06-02T01:13:35.470Z,0
2018-06-02T01:14:37.520Z,0
2018-06-02T01:15:39.554Z,0
2018-06-02T01:16:41.998Z,0
2018-06-02T01:17:44.051Z,0
2018-06-02T01:18:46.084Z,0
2018-06-02T01:19:48.128Z,0
2018-06-02T01:20:50.235Z,0
2018-06-02T01:21:52.511Z,0
2018-06-02T01:22:54.548Z,0
2018-06-02T01:23:56.588Z,0
2018-06-02T01:24:58.642Z,0
2018-06-02T01:26:00.682Z,0
2018-06-02T01:27:02.731Z,0
2018-06-02T01:28:04.774Z,0
2018-06-02T01:29:06.817Z,0
2018-06-02T01:30:08.865Z,0
2018-06-02T01:31:10.904Z,0
2018-06-02T01:32:13.225Z,0
2018-06-02T01:33:15.277Z,0
2018-06-02T01:34:17.314Z,0
2018-06-02T01:35:19.355Z,0
2018-06-02T01:36:21.403Z,0
2018-06-02T01:37:23.442Z,0
2018-06-02T01:38:25.479Z,0
2018-06-02T01:39:27.533Z,0
2018-06-02T01:40:29.577Z,0
2018-06-02T01:41:32.202Z,0
2018-06-02T01:42:34.540Z,0
2018-06-02T01:43:36.574Z,0
2018-06-02T01:44:38.910Z,0
2018-06-02T01:45:41.240Z,0
2018-06-02T01:46:43.286Z,0
2018-06-02T01:47:45.329Z,0
2018-06-02T01:48:47.372Z,0
2018-06-02T01:49:49.426Z,0
2018-06-02T01:50:51.466Z,0
2018-06-02T01:51:53.505Z,0
2018-06-02T01:52:55.836Z,0
2018-06-02T01:53:57.880Z,0
2018-06-02T01:55:00.303Z,0
2018-06-02T01:56:02.633Z,0
2018-06-02T01:57:04.681Z,0
2018-06-02T01:58:06.725Z,0
2018-06-02T01:59:09.046Z,0
2018-06-02T02:00:11.103Z,0
2018-06-02T02:01:13.460Z,0
2018-06-02T02:02:15.507Z,0
2018-06-02T02:03:17.545Z,0
2018-06-02T02:04:19.986Z,0
2018-06-02T02:05:22.022Z,0
2018-06-02T02:06:24.052Z,0
2018-06-02T02:07:26.095Z,0
2018-06-02T02:08:28.133Z,0
2018-06-02T02:09:31.081Z,0
2018-06-02T02:10:33.130Z,0
2018-06-02T02:11:35.160Z,0
2018-06-02T02:12:37.207Z,0
2018-06-02T02:13:39.233Z,0
2018-06-02T02:14:41.275Z,0
2018-06-02T02:15:43.709Z,0
2018-06-02T02:16:46.056Z,0
2018-06-02T02:17:48.114Z,0
2018-06-02T02:18:50.154Z,0
2018-06-02T02:19:52.203Z,0
2018-06-02T02:20:54.244Z,0
2018-06-02T02:21:56.285Z,0
2018-06-02T02:22:58.328Z,0
2018-06-02T02:24:00.370Z,0
2018-06-02T02:25:02.423Z,0
2018-06-02T02:26:04.484Z,0
2018-06-02T02:27:06.526Z,0
2018-06-02T02:28:08.574Z,0
2018-06-02T02:29:10.618Z,0
2018-06-02T02:30:12.667Z,0
2018-06-02T02:31:14.991Z,0
2018-06-02T02:32:17.037Z,0
2018-06-02T02:33:19.082Z,0
2018-06-02T02:34:21.503Z,0
2018-06-02T02:35:23.931Z,0
2018-06-02T02:36:26.359Z,0
2018-06-02T02:37:28.408Z,0
2018-06-02T02:38:30.753Z,0
2018-06-02T02:39:32.786Z,0
2018-06-02T02:40:34.829Z,0
2018-06-02T02:41:37.154Z,1
2018-06-02T02:42:39.485Z,1
2018-06-02T02:43:41.912Z,1
2018-06-02T02:44:44.642Z,1
2018-06-02T02:45:46.692Z,1
2018-06-02T02:46:49.022Z,1
2018-06-02T02:47:51.739Z,1
2018-06-02T02:48:54.066Z,1
2018-06-02T02:49:56.114Z,1
2018-06-02T02:50:58.443Z,1
2018-06-02T02:52:00.488Z,1
2018-06-02T02:53:02.535Z,1
2018-06-02T02:54:04.564Z,2
2018-06-02T02:55:06.900Z,2
2018-06-02T02:56:08.957Z,2
2018-06-02T02:57:11.295Z,2
2018-06-02T02:58:14.012Z,2
2018-06-02T02:59:16.050Z,2
2018-06-02T03:00:18.682Z,2
2018-06-02T03:01:20.720Z,2
2018-06-02T03:02:22.769Z,3
2018-06-02T03:03:25.486Z,3
2018-06-02T03:04:27.820Z,3
2018-06-02T03:05:29.878Z,3
2018-06-02T03:06:31.945Z,3
2018-06-02T03:07:34.345Z,4
2018-06-02T03:08:36.389Z,4
2018-06-02T03:09:38.820Z,4
2018-06-02T03:10:41.251Z,4
2018-06-02T03:11:43.891Z,4
2018-06-02T03:12:45.935Z,5
2018-06-02T03:13:47.981Z,5
2018-06-02T03:14:50.012Z,5
2018-06-02T03:15:52.058Z,5
2018-06-02T03:16:54.100Z,5
2018-06-02T03:17:56.152Z,6
2018-06-02T03:18:58.182Z,6
2018-06-02T03:20:00.277Z,6
2018-06-02T03:21:02.642Z,6
2018-06-02T03:22:04.693Z,6
2018-06-02T03:23:06.736Z,7
2018-06-02T03:24:09.068Z,7
2018-06-02T03:25:11.114Z,7
2018-06-02T03:26:13.432Z,8
2018-06-02T03:27:15.748Z,8
2018-06-02T03:28:18.141Z,8
2018-06-02T03:29:20.179Z,8
2018-06-02T03:30:22.529Z,9
2018-06-02T03:31:25.160Z,9
2018-06-02T03:32:27.257Z,9
2018-06-02T03:33:29.248Z,10
2018-06-02T03:34:31.286Z,10
2018-06-02T03:35:33.328Z,10
2018-06-02T03:36:35.386Z,11
2018-06-02T03:37:37.415Z,11
2018-06-02T03:38:39.466Z,11
2018-06-02T03:39:41.507Z,12
2018-06-02T03:40:43.933Z,12
2018-06-02T03:41:45.971Z,12
2018-06-02T03:42:48.011Z,13
2018-06-02T03:43:50.337Z,13
2018-06-02T03:44:52.378Z,14
2018-06-02T03:45:55.093Z,14
2018-06-02T03:46:57.145Z,14
2018-06-02T03:47:59.178Z,15
2018-06-02T03:49:01.221Z,15
2018-06-02T03:50:03.268Z,16
2018-06-02T03:51:05.303Z,16
2018-06-02T03:52:07.346Z,16
2018-06-02T03:53:09.695Z,16
2018-06-02T03:54:11.744Z,17
2018-06-02T03:55:13.789Z,18
2018-06-02T03:56:15.833Z,18
2018-06-02T03:57:17.870Z,19
2018-06-02T03:58:20.200Z,19
2018-06-02T03:59:22.528Z,19
2018-06-02T04:00:24.948Z,20
2018-06-02T04:01:26.986Z,20
2018-06-02T04:02:29.042Z,20
2018-06-02T04:03:31.081Z,21
2018-06-02T04:04:33.121Z,21
2018-06-02T04:05:35.164Z,21
2018-06-02T04:06:37.596Z,21
2018-06-02T04:07:39.634Z,22
2018-06-02T04:08:42.064Z,22
2018-06-02T04:09:44.410Z,22
2018-06-02T04:10:46.456Z,22
2018-06-02T04:11:48.492Z,23
2018-06-02T04:12:50.536Z,23
2018-06-02T04:13:52.584Z,23
2018-06-02T04:14:54.626Z,23
2018-06-02T04:15:56.670Z,23
2018-06-02T04:16:58.712Z,23
2018-06-02T04:18:00.753Z,23
2018-06-02T04:19:02.806Z,23
2018-06-02T04:20:04.839Z,23
2018-06-02T04:21:06.880Z,23
2018-06-02T04:22:08.923Z,23
2018-06-02T04:23:10.970Z,24
2018-06-02T04:24:13.018Z,23
2018-06-02T04:25:15.061Z,23
2018-06-02T04:26:17.111Z,23
2018-06-02T04:27:19.157Z,23
2018-06-02T04:28:21.185Z,23
2018-06-02T04:29:23.236Z,23
2018-06-02T04:30:25.272Z,23
2018-06-02T04:31:27.702Z,23
2018-06-02T04:32:29.744Z,24
2018-06-02T04:33:31.787Z,24
2018-06-02T04:34:33.837Z,24
2018-06-02T04:35:35.876Z,25
2018-06-02T04:36:38.214Z,24
2018-06-02T04:37:40.257Z,24
2018-06-02T04:38:42.685Z,24
2018-06-02T04:39:44.728Z,24
2018-06-02T04:40:46.778Z,24
2018-06-02T04:41:49.202Z,23
2018-06-02T04:42:51.551Z,23
2018-06-02T04:43:53.591Z,23
2018-06-02T04:44:55.643Z,23
2018-06-02T04:45:58.070Z,23
2018-06-02T04:47:00.106Z,23
2018-06-02T04:48:02.151Z,23
2018-06-02T04:49:04.194Z,24
2018-06-02T04:50:06.622Z,24
2018-06-02T04:51:08.668Z,24
2018-06-02T04:52:10.986Z,25
2018-06-02T04:53:13.412Z,24
2018-06-02T04:54:15.843Z,24
2018-06-02T04:55:17.883Z,24
2018-06-02T04:56:19.929Z,25
2018-06-02T04:57:21.969Z,25
2018-06-02T04:58:24.016Z,25
2018-06-02T04:59:26.067Z,25
2018-06-02T05:00:28.111Z,25
2018-06-02T05:01:30.153Z,25
2018-06-02T05:02:32.511Z,25
2018-06-02T05:03:34.557Z,25
2018-06-02T05:04:36.887Z,25
2018-06-02T05:05:38.928Z,25
2018-06-02T05:06:40.974Z,26
2018-06-02T05:07:43.018Z,26
2018-06-02T05:08:45.051Z,27
2018-06-02T05:09:47.094Z,27
2018-06-02T05:10:49.147Z,27
2018-06-02T05:11:51.194Z,27
2018-06-02T05:12:53.521Z,28
2018-06-02T05:13:55.855Z,28
2018-06-02T05:14:57.895Z,28
2018-06-02T05:15:59.934Z,29
2018-06-02T05:17:01.976Z,29
2018-06-02T05:18:04.025Z,30
2018-06-02T05:19:06.065Z,31
2018-06-02T05:20:08.117Z,32
2018-06-02T05:21:10.543Z,33
2018-06-02T05:22:12.886Z,34
2018-06-02T05:23:14.919Z,34
2018-06-02T05:24:16.975Z,35
2018-06-02T05:25:19.292Z,35
2018-06-02T05:26:21.345Z,35
2018-06-02T05:27:23.388Z,35
2018-06-02T05:28:25.720Z,35
2018-06-02T05:29:27.766Z,35
2018-06-02T05:30:29.815Z,36
2018-06-02T05:31:31.855Z,37
2018-06-02T05:32:34.293Z,39
2018-06-02T05:33:36.336Z,42
2018-06-02T05:34:38.384Z,44
2018-06-02T05:35:40.813Z,46
2018-06-02T05:36:42.853Z,46
2018-06-02T05:37:44.895Z,46
2018-06-02T05:38:46.938Z,46
2018-06-02T05:39:48.983Z,46
2018-06-02T05:40:51.027Z,47
2018-06-02T05:41:53.371Z,49
2018-06-02T05:42:55.421Z,51
2018-06-02T05:43:57.458Z,53
2018-06-02T05:44:59.499Z,54
2018-06-02T05:46:02.092Z,55
2018-06-02T05:47:04.346Z,56
2018-06-02T05:48:06.390Z,57
2018-06-02T05:49:08.817Z,57
2018-06-02T05:50:11.159Z,57
2018-06-02T05:51:13.199Z,58
2018-06-02T05:52:15.631Z,59
2018-06-02T05:53:17.965Z,60
2018-06-02T05:54:20.008Z,61
2018-06-02T05:55:22.052Z,65
2018-06-02T05:56:24.088Z,66
2018-06-02T05:57:26.144Z,67
2018-06-02T05:58:28.199Z,68
2018-06-02T05:59:30.248Z,69
2018-06-02T06:00:32.287Z,68
2018-06-02T06:01:34.535Z,68
2018-06-02T06:02:36.968Z,69
2018-06-02T06:03:39.008Z,69
2018-06-02T06:04:41.345Z,68
2018-06-02T06:05:43.395Z,69
2018-06-02T06:06:45.723Z,70
2018-06-02T06:07:48.148Z,70
2018-06-02T06:08:50.195Z,73
2018-06-02T06:09:52.248Z,71
2018-06-02T06:10:54.680Z,69
2018-06-02T06:11:57.113Z,66
2018-06-02T06:12:59.460Z,65
2018-06-02T06:14:01.501Z,64
2018-06-02T06:15:03.557Z,65
2018-06-02T06:16:05.604Z,66
2018-06-02T06:17:07.650Z,65
2018-06-02T06:18:09.696Z,65
2018-06-02T06:19:11.738Z,65
2018-06-02T06:20:13.776Z,64
2018-06-02T06:21:15.827Z,64
2018-06-02T06:22:17.878Z,63
2018-06-02T06:23:19.928Z,63
2018-06-02T06:24:21.970Z,63
2018-06-02T06:25:24.014Z,63
2018-06-02T06:26:26.054Z,63
2018-06-02T06:27:28.391Z,64
2018-06-02T06:28:30.439Z,66
2018-06-02T06:29:32.482Z,67
2018-06-02T06:30:34.530Z,68
2018-06-02T06:31:36.577Z,68
2018-06-02T06:32:38.621Z,68
2018-06-02T06:33:40.679Z,68
2018-06-02T06:34:43.033Z,68
2018-06-02T06:35:45.079Z,68
2018-06-02T06:36:47.137Z,68
2018-06-02T06:37:49.185Z,68
2018-06-02T06:38:51.226Z,68
2018-06-02T06:39:53.580Z,68
2018-06-02T06:40:55.615Z,68
2018-06-02T06:41:57.668Z,69
2018-06-02T06:43:00.011Z,70
2018-06-02T06:44:02.341Z,71
2018-06-02T06:45:04.388Z,74
2018-06-02T06:46:44.778Z,74
2018-06-02T06:47:46.781Z,75
2018-06-02T06:48:49.173Z,76
2018-06-02T06:49:51.176Z,76
2018-06-02T06:50:53.467Z,77
2018-06-02T06:51:55.473Z,78
2018-06-02T06:52:57.479Z,80
2018-06-02T06:53:59.484Z,82
2018-06-02T06:55:01.487Z,83
2018-06-02T06:56:03.545Z,84
2018-06-02T06:57:05.502Z,87
2018-06-02T06:58:07.518Z,90
2018-06-02T06:59:09.533Z,92
2018-06-02T07:00:11.835Z,94
2018-06-02T07:01:13.839Z,95
2018-06-02T07:02:15.849Z,97
2018-06-02T07:03:17.866Z,97
2018-06-02T07:04:20.258Z,96
2018-06-02T07:05:22.253Z,95
2018-06-02T07:06:24.653Z,94
2018-06-02T07:07:26.661Z,92
2018-06-02T07:08:28.964Z,92
2018-06-02T07:09:30.979Z,92
2018-06-02T07:10:32.982Z,93
2018-06-02T07:11:34.992Z,96
2018-06-02T07:12:36.998Z,96
2018-06-02T07:13:39.000Z,96
2018-06-02T07:14:41.023Z,96
2018-06-02T07:15:43.051Z,97
2018-06-02T07:16:45.379Z,95
2018-06-02T07:17:47.394Z,93
2018-06-02T07:18:49.394Z,90
2018-06-02T07:19:51.404Z,89
2018-06-02T07:20:53.410Z,87
2018-06-02T07:21:55.431Z,87
2018-06-02T07:22:57.444Z,88
2018-06-02T07:23:59.440Z,89
2018-06-02T07:25:01.446Z,90
2018-06-02T07:26:03.453Z,91
2018-06-02T07:27:05.468Z,94
2018-06-02T07:28:07.477Z,96
2018-06-02T07:29:09.486Z,103
2018-06-02T07:30:11.765Z,107
2018-06-02T07:31:13.774Z,112
2018-06-02T07:32:15.777Z,111
2018-06-02T07:33:17.779Z,111
2018-06-02T07:34:19.785Z,109
2018-06-02T07:35:22.086Z,108
2018-06-02T07:36:24.082Z,106
2018-06-02T07:37:26.481Z,105
2018-06-02T07:38:28.795Z,107
2018-06-02T07:39:30.800Z,108
2018-06-02T07:40:32.812Z,109
2018-06-02T07:41:34.827Z,110
2018-06-02T07:42:36.833Z,111
2018-06-02T07:43:39.220Z,113
2018-06-02T07:44:41.229Z,113
2018-06-02T07:45:43.241Z,115
2018-06-02T07:46:45.633Z,114
2018-06-02T07:47:47.625Z,115
2018-06-02T07:48:49.635Z,117
2018-06-02T07:49:51.684Z,122
2018-06-02T07:50:53.654Z,122
2018-06-02T07:51:55.665Z,124
2018-06-02T07:52:57.672Z,126
2018-06-02T07:53:59.970Z,130
2018-06-02T07:55:02.258Z,131
2018-06-02T07:56:04.268Z,133
2018-06-02T07:57:06.282Z,140
2018-06-02T07:58:08.571Z,140
2018-06-02T07:59:10.578Z,139
2018-06-02T08:00:12.581Z,136
2018-06-02T08:01:14.589Z,137
2018-06-02T08:02:16.978Z,134
2018-06-02T08:03:18.991Z,130
2018-06-02T08:04:20.997Z,126
2018-06-02T08:05:23.001Z,131
2018-06-02T08:06:25.015Z,137
2018-06-02T08:07:27.025Z,138
2018-06-02T08:08:29.877Z,142
2018-06-02T08:09:31.807Z,138
2018-06-02T08:10:33.809Z,134
2018-06-02T08:11:35.831Z,139
2018-06-02T08:12:38.117Z,140
2018-06-02T08:13:40.127Z,133
2018-06-02T08:14:42.136Z,139
2018-06-02T08:15:44.437Z,142
2018-06-02T08:16:46.825Z,132
2018-06-02T08:17:48.838Z,123
2018-06-02T08:18:50.852Z,121
2018-06-02T08:19:52.867Z,120
2018-06-02T08:20:54.871Z,121
2018-06-02T08:21:56.885Z,122
2018-06-02T08:22:59.451Z,121
2018-06-02T08:24:01.467Z,115
2018-06-02T08:25:03.472Z,113
2018-06-02T08:26:05.480Z,118
2018-06-02T08:27:07.490Z,120
2018-06-02T08:28:09.885Z,121
2018-06-02T08:29:11.894Z,126
2018-06-02T08:30:13.911Z,130
2018-06-02T08:31:15.923Z,138
2018-06-02T08:32:17.928Z,144
2018-06-02T08:33:20.003Z,159
2018-06-02T08:34:21.957Z,164
2018-06-02T08:35:24.242Z,163
2018-06-02T08:36:26.544Z,145
2018-06-02T08:37:28.550Z,145
2018-06-02T08:38:30.564Z,147
2018-06-02T08:39:32.569Z,148
2018-06-02T08:40:34.959Z,145
2018-06-02T08:41:36.968Z,138
2018-06-02T08:42:39.364Z,134
2018-06-02T08:43:41.363Z,128
2018-06-02T08:44:43.383Z,126
2018-06-02T08:45:45.396Z,125
2018-06-02T08:46:47.406Z,136
2018-06-02T08:47:49.807Z,202
2018-06-02T08:48:51.818Z,139
2018-06-02T08:49:54.113Z,135
2018-06-02T08:50:56.118Z,135
2018-06-02T08:51:58.124Z,135
2018-06-02T08:53:00.421Z,136
2018-06-02T08:54:02.422Z,137
2018-06-02T08:55:04.425Z,146
2018-06-02T08:56:06.720Z,197
2018-06-02T08:57:08.730Z,298
2018-06-02T08:58:11.021Z,274
2018-06-02T08:59:13.025Z,300
2018-06-02T09:00:15.032Z,237
2018-06-02T09:01:17.042Z,191
2018-06-02T09:02:19.047Z,263
2018-06-02T09:03:21.064Z,191
2018-06-02T09:04:23.073Z,179
2018-06-02T09:05:25.137Z,175
2018-06-02T09:06:27.525Z,171
2018-06-02T09:07:29.486Z,167
2018-06-02T09:08:31.502Z,163
2018-06-02T09:09:33.509Z,161
2018-06-02T09:10:35.813Z,163
2018-06-02T09:11:37.828Z,166
2018-06-02T09:12:40.680Z,168
2018-06-02T09:13:43.072Z,171
2018-06-02T09:14:45.362Z,176
2018-06-02T09:15:47.377Z,179
2018-06-02T09:16:49.389Z,184
2018-06-02T09:17:51.388Z,188
2018-06-02T09:18:53.413Z,191
2018-06-02T09:19:55.423Z,194
2018-06-02T09:20:57.436Z,196
2018-06-02T09:21:59.443Z,199
2018-06-02T09:23:01.457Z,204
2018-06-02T09:24:03.516Z,232
2018-06-02T09:25:05.863Z,208
2018-06-02T09:26:07.868Z,208
2018-06-02T09:27:09.876Z,220
2018-06-02T09:28:11.887Z,307
2018-06-02T09:29:14.243Z,357
2018-06-02T09:30:16.272Z,348
2018-06-02T09:31:18.285Z,266
2018-06-02T09:32:20.328Z,350
2018-06-02T09:33:22.646Z,228
2018-06-02T09:34:25.324Z,226
2018-06-02T09:35:27.310Z,235
2018-06-02T09:36:29.319Z,215
2018-06-02T09:37:31.375Z,200
2018-06-02T09:38:33.390Z,190
2018-06-02T09:39:35.791Z,183
2018-06-02T09:40:38.087Z,184
2018-06-02T09:41:40.105Z,199
2018-06-02T09:42:42.499Z,278
2018-06-02T09:43:44.521Z,349
2018-06-02T09:44:46.585Z,347
2018-06-02T09:45:48.539Z,389
2018-06-02T09:46:50.552Z,401
2018-06-02T09:47:52.568Z,375
2018-06-02T09:48:54.992Z,384
2018-06-02T09:49:57.003Z,235
2018-06-02T09:50:59.020Z,213
2018-06-02T09:52:01.087Z,267
2018-06-02T09:53:03.097Z,388
2018-06-02T09:54:05.113Z,428
2018-06-02T09:55:07.416Z,398
2018-06-02T09:56:09.428Z,394
2018-06-02T09:57:11.447Z,402
2018-06-02T09:58:13.467Z,430
2018-06-02T09:59:16.057Z,371
2018-06-02T10:00:18.084Z,291
2018-06-02T10:01:20.109Z,306
2018-06-02T10:02:22.173Z,320
2018-06-02T10:03:24.866Z,381
2018-06-02T10:04:26.895Z,311
2018-06-02T10:05:29.188Z,334
2018-06-02T10:06:31.554Z,408
2018-06-02T10:07:33.893Z,473
2018-06-02T10:08:36.201Z,478
2018-06-02T10:09:38.243Z,478
2018-06-02T10:10:40.299Z,452
2018-06-02T10:11:42.361Z,484
2018-06-02T10:12:44.435Z,484
2018-06-02T10:13:46.483Z,483
2018-06-02T10:14:48.567Z,495
2018-06-02T10:15:50.612Z,482
2018-06-02T10:16:52.971Z,479
2018-06-02T10:17:55.314Z,495
2018-06-02T10:18:57.368Z,471
2018-06-02T10:19:59.486Z,464
2018-06-02T10:21:02.132Z,474
2018-06-02T10:22:04.187Z,468
2018-06-02T10:23:06.248Z,469
2018-06-02T10:24:08.311Z,469
2018-06-02T10:25:10.367Z,441
2018-06-02T10:26:12.427Z,460
2018-06-02T10:27:14.490Z,440
2018-06-02T10:28:16.931Z,486
2018-06-02T10:29:18.981Z,456
2018-06-02T10:30:21.043Z,432
2018-06-02T10:31:23.211Z,380
2018-06-02T10:32:25.479Z,233
2018-06-02T10:33:27.832Z,287
2018-06-02T10:34:29.889Z,380
2018-06-02T10:35:32.365Z,333
2018-06-02T10:36:34.736Z,239
2018-06-02T10:37:37.077Z,326
2018-06-02T10:38:39.141Z,267
2018-06-02T10:39:41.366Z,261
2018-06-02T10:40:43.428Z,246
2018-06-02T10:41:45.482Z,387
2018-06-02T10:42:48.049Z,469
2018-06-02T10:43:50.112Z,489
2018-06-02T10:44:52.168Z,501
2018-06-02T10:45:54.243Z,469
2018-06-02T10:46:56.296Z,470
2018-06-02T10:47:58.355Z,449
2018-06-02T10:49:00.407Z,450
2018-06-02T10:50:02.470Z,474
2018-06-02T10:51:04.531Z,479
2018-06-02T10:52:06.594Z,455
2018-06-02T10:53:08.659Z,448
2018-06-02T10:54:10.714Z,439
2018-06-02T10:55:12.766Z,484
2018-06-02T10:56:14.825Z,474
2018-06-02T10:57:16.885Z,446
2018-06-02T10:58:19.252Z,420
2018-06-02T10:59:21.300Z,477
2018-06-02T11:00:23.351Z,438
2018-06-02T11:01:25.407Z,481
2018-06-02T11:02:27.461Z,461
2018-06-02T11:03:29.902Z,207
2018-06-02T11:04:31.962Z,362
2018-06-02T11:05:34.018Z,267
2018-06-02T11:06:36.077Z,413
2018-06-02T11:07:38.413Z,422
2018-06-02T11:08:40.476Z,431
2018-06-02T11:09:42.818Z,419
2018-06-02T11:10:44.877Z,407
2018-06-02T11:11:46.939Z,438
2018-06-02T11:12:49.000Z,451
2018-06-02T11:13:51.049Z,426
2018-06-02T11:14:53.407Z,227
2018-06-02T11:15:55.868Z,239
2018-06-02T11:16:57.928Z,454
2018-06-02T11:18:00.647Z,486
2018-06-02T11:19:02.708Z,269
2018-06-02T11:20:04.762Z,209
2018-06-02T11:21:07.521Z,163
2018-06-02T11:22:09.566Z,149
2018-06-02T11:23:11.626Z,159
2018-06-02T11:24:14.272Z,187
2018-06-02T11:25:16.320Z,295
2018-06-02T11:26:18.377Z,415
2018-06-02T11:27:20.431Z,428
2018-06-02T11:28:22.488Z,398
2018-06-02T11:29:24.550Z,420
2018-06-02T11:30:26.599Z,373
2018-06-02T11:31:28.660Z,268
2018-06-02T11:32:31.008Z,379
2018-06-02T11:33:33.061Z,337
2018-06-02T11:34:35.123Z,255
2018-06-02T11:35:37.470Z,230
2018-06-02T11:36:39.803Z,232
2018-06-02T11:37:42.154Z,268
2018-06-02T11:38:44.495Z,367
2018-06-02T11:39:46.556Z,197
2018-06-02T11:40:48.615Z,224
2018-06-02T11:41:50.962Z,355
2018-06-02T11:42:53.020Z,217
2018-06-02T11:43:55.360Z,208
2018-06-02T11:44:57.422Z,216
2018-06-02T11:45:59.473Z,262
2018-06-02T11:47:01.532Z,361
2018-06-02T11:48:04.274Z,274
2018-06-02T11:49:06.338Z,260
2018-06-02T11:50:08.660Z,306
2018-06-02T11:51:11.119Z,300
2018-06-02T11:52:13.554Z,377
2018-06-02T11:53:15.610Z,430
2018-06-02T11:54:17.658Z,288
2018-06-02T11:55:20.101Z,406
2018-06-02T11:56:22.478Z,267
2018-06-02T11:57:24.530Z,269
2018-06-02T11:58:26.590Z,238
2018-06-02T11:59:28.649Z,284
2018-06-02T12:00:30.702Z,292
2018-06-02T12:01:32.756Z,382
2018-06-02T12:02:34.808Z,403
2018-06-02T12:03:36.878Z,374
2018-06-02T12:04:38.931Z,311
2018-06-02T12:05:40.977Z,271
2018-06-02T12:06:43.034Z,206
2018-06-02T12:07:45.088Z,215
2018-06-02T12:08:47.150Z,200
2018-06-02T12:09:49.199Z,170
2018-06-02T12:10:51.261Z,120
2018-06-02T12:11:53.318Z,103
2018-06-02T12:12:55.756Z,101
2018-06-02T12:13:58.169Z,105
2018-06-02T12:15:00.449Z,112
2018-06-02T12:16:02.509Z,121
2018-06-02T12:17:04.563Z,126
2018-06-02T12:18:06.615Z,125
2018-06-02T12:19:08.676Z,127
2018-06-02T12:20:10.721Z,128
2018-06-02T12:21:13.164Z,129
2018-06-02T12:22:15.221Z,128
2018-06-02T12:23:17.275Z,123
2018-06-02T12:24:19.340Z,111
2018-06-02T12:25:21.383Z,101
2018-06-02T12:26:23.440Z,101
2018-06-02T12:27:25.553Z,105
2018-06-02T12:28:27.657Z,105
2018-06-02T12:29:30.059Z,106
2018-06-02T12:30:32.108Z,101
2018-06-02T12:31:34.158Z,99
2018-06-02T12:32:36.212Z,98
2018-06-02T12:33:38.935Z,97
2018-06-02T12:34:41.017Z,96
2018-06-02T12:35:43.041Z,96
2018-06-02T12:36:45.105Z,97
2018-06-02T12:37:47.150Z,98
2018-06-02T12:38:49.204Z,105
2018-06-02T12:39:51.259Z,116
2018-06-02T12:40:53.317Z,127
2018-06-02T12:41:55.365Z,139
2018-06-02T12:42:57.421Z,158
2018-06-02T12:43:59.476Z,223
2018-06-02T12:45:01.862Z,285
2018-06-02T12:46:03.907Z,234
2018-06-02T12:47:05.965Z,208
2018-06-02T12:48:08.311Z,198
2018-06-02T12:49:10.366Z,219
2018-06-02T12:50:12.413Z,258
2018-06-02T12:51:14.474Z,235
2018-06-02T12:52:16.913Z,245
2018-06-02T12:53:19.612Z,255
2018-06-02T12:54:21.653Z,315
2018-06-02T12:55:23.995Z,314
2018-06-02T12:56:26.623Z,314
2018-06-02T12:57:28.958Z,355
2018-06-02T12:58:31.298Z,357
2018-06-02T12:59:33.352Z,358
2018-06-02T13:00:35.393Z,374
2018-06-02T13:01:37.835Z,352
2018-06-02T13:02:39.885Z,259
2018-06-02T13:03:41.942Z,204
2018-06-02T13:04:44.001Z,197
2018-06-02T13:05:46.056Z,344
2018-06-02T13:06:48.113Z,270
2018-06-02T13:07:50.163Z,222
2018-06-02T13:08:52.219Z,192
2018-06-02T13:09:54.272Z,208
2018-06-02T13:10:56.324Z,213
2018-06-02T13:11:58.383Z,227
2018-06-02T13:13:00.441Z,232
2018-06-02T13:14:02.776Z,200
2018-06-02T13:15:04.835Z,189
2018-06-02T13:16:06.886Z,198
2018-06-02T13:17:08.930Z,256
2018-06-02T13:18:11.380Z,304
2018-06-02T13:19:13.423Z,339
2018-06-02T13:20:15.766Z,349
2018-06-02T13:21:17.890Z,337
2018-06-02T13:22:19.872Z,352
2018-06-02T13:23:22.601Z,364
2018-06-02T13:24:24.652Z,364
2018-06-02T13:25:26.706Z,351
2018-06-02T13:26:28.767Z,343
2018-06-02T13:27:30.817Z,329
2018-06-02T13:28:32.880Z,346
2018-06-02T13:29:34.927Z,371
2018-06-02T13:30:36.979Z,368
2018-06-02T13:31:39.610Z,340
2018-06-02T13:32:41.661Z,321
2018-06-02T13:33:43.712Z,238
2018-06-02T13:34:45.773Z,201
2018-06-02T13:35:47.815Z,201
2018-06-02T13:36:49.870Z,234
2018-06-02T13:37:52.310Z,295
2018-06-02T13:38:54.371Z,341
2018-06-02T13:39:56.432Z,333
2018-06-02T13:40:58.475Z,362
2018-06-02T13:42:00.916Z,354
2018-06-02T13:43:03.638Z,331
2018-06-02T13:44:05.655Z,354
2018-06-02T13:45:08.109Z,353
2018-06-02T13:46:10.164Z,345
2018-06-02T13:47:12.225Z,350
2018-06-02T13:48:15.477Z,345
2018-06-02T13:49:17.819Z,334
2018-06-02T13:50:19.878Z,320
2018-06-02T13:51:22.299Z,336
2018-06-02T13:52:24.311Z,337
2018-06-02T13:53:26.372Z,351
2018-06-02T13:54:28.423Z,354
2018-06-02T13:55:30.482Z,339
2018-06-02T13:56:32.838Z,336
2018-06-02T13:57:34.921Z,347
2018-06-02T13:58:37.328Z,336
2018-06-02T13:59:39.379Z,337
2018-06-02T14:00:41.442Z,344
2018-06-02T14:01:43.801Z,336
2018-06-02T14:02:45.865Z,323
2018-06-02T14:03:48.210Z,305
2018-06-02T14:04:50.562Z,198
2018-06-02T14:05:52.623Z,218
2018-06-02T14:06:54.726Z,295
2018-06-02T14:07:56.782Z,305
2018-06-02T14:08:59.251Z,298
2018-06-02T14:10:01.581Z,247
2018-06-02T14:11:03.642Z,276
2018-06-02T14:12:06.086Z,239
2018-06-02T14:13:08.144Z,177
2018-06-02T14:14:10.190Z,244
2018-06-02T14:15:12.248Z,170
2018-06-02T14:16:14.320Z,138
2018-06-02T14:17:16.381Z,134
2018-06-02T14:18:18.757Z,154
2018-06-02T14:19:20.811Z,179
2018-06-02T14:20:22.869Z,165
2018-06-02T14:21:24.932Z,147
2018-06-02T14:22:26.991Z,136
2018-06-02T14:23:29.043Z,125
2018-06-02T14:24:31.384Z,118
2018-06-02T14:25:33.519Z,107
2018-06-02T14:26:35.498Z,105
2018-06-02T14:27:37.546Z,108
2018-06-02T14:28:39.606Z,112
2018-06-02T14:29:42.621Z,124
2018-06-02T14:30:44.678Z,123
2018-06-02T14:31:46.728Z,121
2018-06-02T14:32:48.800Z,117
2018-06-02T14:33:51.139Z,109
2018-06-02T14:34:53.470Z,111
2018-06-02T14:35:55.925Z,116
2018-06-02T14:36:58.266Z,121
2018-06-02T14:38:00.716Z,123
2018-06-02T14:39:02.705Z,129